createdAt,value
2022-08-22T00:01:20.318Z,101611.13
2022-08-22T00:02:53.828Z,101640.16
2022-08-22T00:03:01.919Z,101637.00
2022-08-22T00:03:04.491Z,101619.44
2022-08-22T00:04:33.400Z,101610.53
2022-08-22T00:07:13.168Z,101606.16
2022-08-22T00:09:57.346Z,101606.09
2022-08-22T00:12:41.773Z,101602.84
2022-08-22T00:15:42.581Z,101606.44
2022-08-22T00:18:25.181Z,101612.88
2022-08-22T00:21:10.122Z,101605.69
2022-08-22T00:23:53.968Z,101614.28
2022-08-22T00:26:54.403Z,101611.75
2022-08-22T00:29:30.395Z,101611.53
2022-08-22T00:32:23.906Z,101614.56
2022-08-22T00:35:22.616Z,101612.31
2022-08-22T00:38:14.257Z,101609.63
2022-08-22T00:40:49.930Z,101609.63
2022-08-22T00:43:31.542Z,101600.53
2022-08-22T00:46:19.315Z,101603.63
2022-08-22T00:48:54.883Z,101610.53
2022-08-22T00:51:49.764Z,101607.53
2022-08-22T00:54:34.461Z,101611.38
2022-08-22T00:57:19.558Z,101616.44
2022-08-22T01:00:13.170Z,101611.69
2022-08-22T01:03:17.039Z,101612.00
2022-08-22T01:06:31.684Z,101609.22
2022-08-22T01:09:05.052Z,101610.66
2022-08-22T01:11:50.217Z,101608.66
2022-08-22T01:14:52.548Z,101604.78
2022-08-22T01:17:53.331Z,101611.19
2022-08-22T01:20:37.604Z,101601.00
2022-08-22T01:23:25.305Z,101604.88
2022-08-22T01:26:30.738Z,101598.22
2022-08-22T01:29:15.965Z,101607.66
2022-08-22T01:32:19.773Z,101599.31
2022-08-22T01:35:24.711Z,101611.00
2022-08-22T01:38:31.299Z,101602.13
2022-08-22T01:41:45.646Z,101603.25
2022-08-22T01:44:59.813Z,101604.34
2022-08-22T01:47:48.119Z,101601.94
2022-08-22T01:50:36.619Z,101601.97
2022-08-22T01:53:20.181Z,101599.69
2022-08-22T01:56:11.406Z,101598.59
2022-08-22T01:58:45.180Z,101605.56
2022-08-22T02:01:46.788Z,101600.00
2022-08-22T02:04:43.399Z,101591.97
2022-08-22T02:07:40.118Z,101595.84
2022-08-22T02:10:40.162Z,101599.16
2022-08-22T02:13:12.916Z,101593.94
2022-08-22T02:15:39.688Z,101589.22
2022-08-22T02:18:06.183Z,101588.97
2022-08-22T02:20:39.263Z,101599.19
2022-08-22T02:23:19.519Z,101593.94
2022-08-22T02:25:50.961Z,101594.50
2022-08-22T02:28:37.912Z,101592.81
2022-08-22T02:31:37.274Z,101593.66
2022-08-22T02:34:16.905Z,101597.56
2022-08-22T02:36:53.750Z,101594.25
2022-08-22T02:39:37.423Z,101590.91
2022-08-22T02:42:18.870Z,101584.53
2022-08-22T02:45:16.221Z,101582.91
2022-08-22T02:48:00.666Z,101582.41
2022-08-22T02:50:46.529Z,101591.81
2022-08-22T02:53:44.408Z,101589.56
2022-08-22T02:56:33.245Z,101586.28
2022-08-22T02:59:23.193Z,101585.19
2022-08-22T03:01:51.166Z,101579.91
2022-08-22T03:04:32.677Z,101582.94
2022-08-22T03:07:27.608Z,101575.44
2022-08-22T03:10:37.966Z,101582.66
2022-08-22T03:13:33.522Z,101591.00
2022-08-22T03:16:08.367Z,101583.28
2022-08-22T03:18:49.719Z,101584.09
2022-08-22T03:21:37.391Z,101576.63
2022-08-22T03:24:29.080Z,101573.31
2022-08-22T03:27:09.510Z,101563.91
2022-08-22T03:29:40.450Z,101564.75
2022-08-22T03:32:11.767Z,101551.75
2022-08-22T03:34:54.472Z,101550.38
2022-08-22T03:37:35.853Z,101556.50
2022-08-22T03:40:20.130Z,101543.22
2022-08-22T03:42:55.927Z,101555.94
2022-08-22T03:45:41.099Z,101554.00
2022-08-22T03:48:38.744Z,101561.47
2022-08-22T03:51:22.256Z,101554.84
2022-08-22T03:54:07.437Z,101556.78
2022-08-22T03:56:58.901Z,101550.69
2022-08-22T04:00:20.854Z,101558.19
2022-08-22T04:03:11.843Z,101552.13
2022-08-22T04:05:58.098Z,101550.97
2022-08-22T04:08:44.804Z,101550.97
2022-08-22T04:11:31.607Z,101546.63
2022-08-22T04:14:24.207Z,101558.22
2022-08-22T04:17:24.620Z,101557.69
2022-08-22T04:20:05.322Z,101570.44
2022-08-22T04:22:52.579Z,101569.88
2022-08-22T04:25:27.804Z,101568.22
2022-08-22T04:28:12.944Z,101566.56
2022-08-22T04:30:50.420Z,101564.63
2022-08-22T04:33:30.335Z,101562.69
2022-08-22T04:36:05.318Z,101566.00
2022-08-22T04:38:48.684Z,101568.22
2022-08-22T04:41:48.960Z,101566.03
2022-08-22T04:44:33.765Z,101565.44
2022-08-22T04:47:08.233Z,101567.41
2022-08-22T04:49:41.707Z,101577.63
2022-08-22T04:52:08.136Z,101567.94
2022-08-22T04:54:48.430Z,101575.69
2022-08-22T04:57:19.445Z,101575.69
2022-08-22T04:59:46.175Z,101579.31
2022-08-22T05:02:22.212Z,101587.03
2022-08-22T05:05:13.611Z,101587.31
2022-08-22T05:07:52.065Z,101589.25
2022-08-22T05:10:23.229Z,101590.91
2022-08-22T05:12:55.455Z,101589.56
2022-08-22T05:15:27.617Z,101589.56
2022-08-22T05:17:58.010Z,101592.59
2022-08-22T05:20:27.567Z,101592.84
2022-08-22T05:23:05.875Z,101592.56
2022-08-22T05:25:38.396Z,101586.47
2022-08-22T05:28:15.714Z,101595.88
2022-08-22T05:30:45.849Z,101595.88
2022-08-22T05:33:22.818Z,101600.88
2022-08-22T05:35:59.089Z,101592.59
2022-08-22T05:38:31.494Z,101603.09
2022-08-22T05:41:16.960Z,101606.97
2022-08-22T05:43:45.159Z,101608.34
2022-08-22T05:46:24.614Z,101604.50
2022-08-22T05:49:00.092Z,101598.38
2022-08-22T05:51:35.551Z,101608.63
2022-08-22T05:54:34.493Z,101605.03
2022-08-22T05:57:23.743Z,101601.44
2022-08-22T05:59:57.716Z,101604.50
2022-08-22T06:02:44.817Z,101593.13
2022-08-22T06:05:12.396Z,101593.72
2022-08-22T06:07:46.368Z,101599.78
2022-08-22T06:10:31.141Z,101602.00
2022-08-22T06:13:06.670Z,101605.84
2022-08-22T06:15:53.464Z,101599.22
2022-08-22T06:18:24.568Z,101605.88
2022-08-22T06:20:55.936Z,101606.69
2022-08-22T06:23:30.102Z,101613.59
2022-08-22T06:26:00.060Z,101613.91
2022-08-22T06:28:32.707Z,101605.31
2022-08-22T06:31:02.175Z,101603.09
2022-08-22T06:33:32.827Z,101612.50
2022-08-22T06:36:25.676Z,101617.22
2022-08-22T06:39:21.086Z,101623.31
2022-08-22T06:41:52.623Z,101621.13
2022-08-22T06:44:23.287Z,101622.78
2022-08-22T06:46:55.373Z,101618.06
2022-08-22T06:49:24.665Z,101620.25
2022-08-22T06:51:51.863Z,101615.28
2022-08-22T06:54:23.884Z,101628.84
2022-08-22T06:56:53.126Z,101631.63
2022-08-22T06:59:25.881Z,101637.16
2022-08-22T07:02:05.046Z,101631.34
2022-08-22T07:04:31.872Z,101634.38
2022-08-22T07:07:01.236Z,101639.66
2022-08-22T07:09:35.481Z,101643.25
2022-08-22T07:12:10.958Z,101641.28
2022-08-22T07:14:43.589Z,101646.28
2022-08-22T07:17:18.683Z,101646.28
2022-08-22T07:19:53.951Z,101643.22
2022-08-22T07:22:28.239Z,101638.28
2022-08-22T07:25:00.671Z,101626.09
2022-08-22T07:28:00.349Z,101624.72
2022-08-22T07:30:55.057Z,101632.16
2022-08-22T07:33:40.779Z,101629.69
2022-08-22T07:36:46.785Z,101635.22
2022-08-22T07:39:19.390Z,101633.53
2022-08-22T07:42:11.269Z,101626.88
2022-08-22T07:45:01.555Z,101622.72
2022-08-22T07:47:50.181Z,101609.69
2022-08-22T07:50:23.261Z,101614.13
2022-08-22T07:52:51.837Z,101618.00
2022-08-22T07:55:26.191Z,101622.69
2022-08-22T07:57:59.093Z,101619.63
2022-08-22T08:00:28.914Z,101620.19
2022-08-22T08:03:02.648Z,101620.16
2022-08-22T08:05:32.749Z,101616.84
2022-08-22T08:08:07.724Z,101616.53
2022-08-22T08:10:39.567Z,101611.31
2022-08-22T08:13:12.930Z,101611.84
2022-08-22T08:15:42.976Z,101607.94
2022-08-22T08:18:19.107Z,101602.66
2022-08-22T08:20:54.547Z,101603.75
2022-08-22T08:23:23.381Z,101595.69
2022-08-22T08:26:06.956Z,101595.34
2022-08-22T08:28:41.281Z,101588.91
2022-08-22T08:31:17.861Z,101593.03
2022-08-22T08:33:47.391Z,101588.84
2022-08-22T08:36:29.126Z,101591.03
2022-08-22T08:38:58.618Z,101583.50
2022-08-22T08:41:37.329Z,101596.44
2022-08-22T08:44:30.575Z,101588.69
2022-08-22T08:47:35.710Z,101590.19
2022-08-22T08:50:29.236Z,101594.00
2022-08-22T08:53:26.560Z,101587.56
2022-08-22T08:56:47.304Z,101580.00
2022-08-22T08:59:40.407Z,101580.22
2022-08-22T09:02:23.508Z,101582.25
2022-08-22T09:05:08.588Z,101581.66
2022-08-22T09:08:13.596Z,101571.63
2022-08-22T09:10:58.624Z,101564.69
2022-08-22T09:13:50.290Z,101575.69
2022-08-22T09:16:25.663Z,101576.19
2022-08-22T09:19:19.751Z,101572.63
2022-08-22T09:22:07.387Z,101571.94
2022-08-22T09:24:59.457Z,101560.69
2022-08-22T09:27:26.261Z,101564.91
2022-08-22T09:30:14.203Z,101574.06
2022-08-22T09:32:59.420Z,101570.47
2022-08-22T09:35:46.948Z,101574.31
2022-08-22T09:38:48.269Z,101572.22
2022-08-22T09:41:35.420Z,101565.22
2022-08-22T09:44:19.696Z,101570.38
2022-08-22T09:46:54.968Z,101562.53
2022-08-22T09:49:48.237Z,101565.72
2022-08-22T09:52:34.205Z,101569.03
2022-08-22T09:55:35.442Z,101564.00
2022-08-22T09:58:18.077Z,101567.09
2022-08-22T10:00:55.584Z,101566.03
2022-08-22T10:03:33.046Z,101566.44
2022-08-22T10:06:13.227Z,101565.91
2022-08-22T10:08:53.693Z,101559.59
2022-08-22T10:11:32.135Z,101555.53
2022-08-22T10:14:08.091Z,101556.06
2022-08-22T10:16:43.057Z,101545.88
2022-08-22T10:19:32.300Z,101549.09
2022-08-22T10:22:08.433Z,101552.31
2022-08-22T10:24:43.698Z,101542.72
2022-08-22T10:27:19.715Z,101541.13
2022-08-22T10:30:08.039Z,101539.22
2022-08-22T10:32:59.128Z,101546.53
2022-08-22T10:35:51.464Z,101535.72
2022-08-22T10:38:27.838Z,101541.53
2022-08-22T10:41:19.651Z,101540.59
2022-08-22T10:44:04.057Z,101532.66
2022-08-22T10:46:38.943Z,101536.81
2022-08-22T10:49:19.616Z,101538.06
2022-08-22T10:51:56.754Z,101524.53
2022-08-22T10:54:51.155Z,101531.88
2022-08-22T10:57:52.992Z,101523.44
2022-08-22T11:00:58.252Z,101525.50
2022-08-22T11:03:45.512Z,101526.41
2022-08-22T11:06:33.448Z,101526.22
2022-08-22T11:09:19.813Z,101524.94
2022-08-22T11:12:12.590Z,101514.91
2022-08-22T11:14:59.558Z,101521.91
2022-08-22T11:17:31.017Z,101514.91
2022-08-22T11:20:21.519Z,101520.88
2022-08-22T11:23:05.445Z,101520.03
2022-08-22T11:25:56.745Z,101513.53
2022-08-22T11:28:50.900Z,101512.59
2022-08-22T11:31:55.429Z,101506.16
2022-08-22T11:34:37.077Z,101507.00
2022-08-22T11:37:11.775Z,101511.41
2022-08-22T11:40:18.924Z,101513.91
2022-08-22T11:43:07.538Z,101508.97
2022-08-22T11:45:49.306Z,101500.59
2022-08-22T11:48:21.921Z,101501.63
2022-08-22T11:51:24.847Z,101502.75
2022-08-22T11:54:19.692Z,101501.31
2022-08-22T11:57:03.050Z,101498.94
2022-08-22T11:59:55.522Z,101501.56
2022-08-22T12:03:00.055Z,101497.66
2022-08-22T12:05:34.350Z,101502.75
2022-08-22T12:08:11.326Z,101499.03
2022-08-22T12:10:48.839Z,101497.53
2022-08-22T12:13:35.049Z,101501.00
2022-08-22T12:16:02.009Z,101505.16
2022-08-22T12:18:52.914Z,101504.00
2022-08-22T12:21:24.369Z,101501.00
2022-08-22T12:24:11.177Z,101495.78
2022-08-22T12:27:07.828Z,101489.41
2022-08-22T12:30:03.349Z,101496.31
2022-08-22T12:32:49.050Z,101501.25
2022-08-22T12:35:45.953Z,101503.75
2022-08-22T12:38:46.929Z,101498.81
2022-08-22T12:41:46.649Z,101497.53
2022-08-22T12:44:24.688Z,101499.38
2022-08-22T12:47:14.150Z,101492.94
2022-08-22T12:49:54.024Z,101490.34
2022-08-22T12:52:55.918Z,101486.06
2022-08-22T12:55:33.658Z,101480.47
2022-08-22T12:58:11.636Z,101476.44
2022-08-22T13:00:45.093Z,101474.94
2022-08-22T13:03:35.281Z,101473.28
2022-08-22T13:06:26.884Z,101479.41
2022-08-22T13:08:54.254Z,101467.56
2022-08-22T13:11:23.588Z,101464.47
2022-08-22T13:14:00.341Z,101459.88
2022-08-22T13:16:49.038Z,101453.88
2022-08-22T13:19:26.995Z,101459.50
2022-08-22T13:22:02.394Z,101460.72
2022-08-22T13:24:55.060Z,101455.47
2022-08-22T13:27:29.812Z,101451.50
2022-08-22T13:30:05.687Z,101456.31
2022-08-22T13:32:45.378Z,101459.47
2022-08-22T13:35:30.201Z,101457.69
2022-08-22T13:38:05.564Z,101454.56
2022-08-22T13:40:33.961Z,101449.34
2022-08-22T13:43:11.288Z,101452.34
2022-08-22T13:45:41.856Z,101445.41
2022-08-22T13:48:12.611Z,101446.72
2022-08-22T13:51:04.620Z,101446.72
2022-08-22T13:53:50.065Z,101446.72
2022-08-22T13:56:44.137Z,101447.41
2022-08-22T13:59:50.184Z,101444.91
2022-08-22T14:02:37.299Z,101436.84
2022-08-22T14:05:12.223Z,101423.66
2022-08-22T14:08:12.469Z,101437.50
2022-08-22T14:10:45.765Z,101440.81
2022-08-22T14:13:29.623Z,101431.22
2022-08-22T14:16:06.406Z,101428.91
2022-08-22T14:18:46.126Z,101422.78
2022-08-22T14:21:33.569Z,101427.03
2022-08-22T14:24:25.893Z,101418.13
2022-08-22T14:26:57.918Z,101419.41
2022-08-22T14:29:28.323Z,101415.94
2022-08-22T14:32:31.001Z,101416.44
2022-08-22T14:35:25.455Z,101415.41
2022-08-22T14:38:32.622Z,101415.53
2022-08-22T14:41:05.463Z,101412.28
2022-08-22T14:43:31.996Z,101410.28
2022-08-22T14:46:07.408Z,101411.06
2022-08-22T14:48:42.905Z,101407.19
2022-08-22T14:51:21.221Z,101407.69
2022-08-22T14:53:48.246Z,101406.84
2022-08-22T14:56:27.999Z,101407.69
2022-08-22T14:59:02.232Z,101406.91
2022-08-22T15:01:32.892Z,101403.91
2022-08-22T15:04:09.538Z,101408.19
2022-08-22T15:06:47.692Z,101401.59
2022-08-22T15:09:37.729Z,101406.06
2022-08-22T15:12:30.588Z,101394.84
2022-08-22T15:15:01.241Z,101406.22
2022-08-22T15:17:32.188Z,101395.81
2022-08-22T15:20:11.782Z,101392.75
2022-08-22T15:22:40.851Z,101391.09
2022-08-22T15:25:17.255Z,101391.66
2022-08-22T15:28:14.225Z,101390.69
2022-08-22T15:31:06.784Z,101389.03
2022-08-22T15:33:39.892Z,101390.63
2022-08-22T15:36:21.346Z,101388.34
2022-08-22T15:38:52.094Z,101377.94
2022-08-22T15:41:21.579Z,101379.59
2022-08-22T15:43:52.279Z,101377.63
2022-08-22T15:46:21.718Z,101370.50
2022-08-22T15:49:11.751Z,101377.75
2022-08-22T15:51:50.348Z,101370.53
2022-08-22T15:54:41.573Z,101372.50
2022-08-22T15:57:31.460Z,101368.09
2022-08-22T16:00:01.919Z,101359.53
2022-08-22T16:02:41.678Z,101365.44
2022-08-22T16:05:11.254Z,101363.59
2022-08-22T16:07:40.003Z,101354.09
2022-08-22T16:10:12.960Z,101361.25
2022-08-22T16:12:45.856Z,101357.31
2022-08-22T16:15:54.163Z,101354.00
2022-08-22T16:18:48.891Z,101350.75
2022-08-22T16:21:16.464Z,101341.13
2022-08-22T16:23:56.606Z,101347.31
2022-08-22T16:26:30.589Z,101343.69
2022-08-22T16:29:03.124Z,101340.53
2022-08-22T16:31:34.780Z,101335.81
2022-08-22T16:34:26.493Z,101341.41
2022-08-22T16:37:14.916Z,101337.19
2022-08-22T16:39:48.322Z,101336.84
2022-08-22T16:42:23.897Z,101335.94
2022-08-22T16:45:02.615Z,101336.84
2022-08-22T16:47:37.377Z,101326.56
2022-08-22T16:50:16.161Z,101326.28
2022-08-22T16:53:07.719Z,101323.47
2022-08-22T16:55:35.927Z,101315.75
2022-08-22T16:58:56.861Z,101311.88
2022-08-22T17:01:56.565Z,101321.38
2022-08-22T17:04:55.511Z,101319.03
2022-08-22T17:07:51.530Z,101310.00
2022-08-22T17:10:27.966Z,101319.72
2022-08-22T17:13:33.046Z,101321.94
2022-08-22T17:16:13.236Z,101313.19
2022-08-22T17:18:40.127Z,101310.22
2022-08-22T17:21:17.670Z,101315.41
2022-08-22T17:23:59.206Z,101314.56
2022-08-22T17:27:02.959Z,101313.13
2022-08-22T17:29:47.556Z,101323.00
2022-08-22T17:32:32.318Z,101306.97
2022-08-22T17:35:12.476Z,101308.97
2022-08-22T17:37:57.287Z,101306.38
2022-08-22T17:41:00.923Z,101314.72
2022-08-22T17:43:48.530Z,101318.75
2022-08-22T17:46:48.234Z,101323.06
2022-08-22T17:49:45.352Z,101317.41
2022-08-22T17:52:22.286Z,101317.69
2022-08-22T17:54:58.944Z,101331.72
2022-08-22T17:57:34.105Z,101321.19
2022-08-22T18:00:11.216Z,101336.41
2022-08-22T18:02:44.481Z,101328.19
2022-08-22T18:05:20.337Z,101334.53
2022-08-22T18:08:01.291Z,101333.78
2022-08-22T18:10:31.392Z,101339.16
2022-08-22T18:13:10.164Z,101344.31
2022-08-22T18:16:01.072Z,101342.44
2022-08-22T18:18:37.692Z,101338.81
2022-08-22T18:21:04.240Z,101346.78
2022-08-22T18:23:40.713Z,101344.97
2022-08-22T18:26:38.861Z,101345.72
2022-08-22T18:29:16.831Z,101351.41
2022-08-22T18:31:51.561Z,101349.78
2022-08-22T18:34:26.024Z,101355.59
2022-08-22T18:37:03.983Z,101354.47
2022-08-22T18:39:45.448Z,101350.13
2022-08-22T18:42:47.694Z,101360.78
2022-08-22T18:45:43.892Z,101368.75
2022-08-22T18:48:21.322Z,101363.44
2022-08-22T18:50:49.242Z,101365.47
2022-08-22T18:53:39.075Z,101371.91
2022-08-22T18:56:13.326Z,101369.22
2022-08-22T18:58:45.836Z,101360.34
2022-08-22T19:01:50.717Z,101368.25
2022-08-22T19:04:44.215Z,101367.09
2022-08-22T19:07:36.925Z,101370.06
2022-08-22T19:10:29.408Z,101377.81
2022-08-22T19:13:01.680Z,101367.59
2022-08-22T19:15:46.798Z,101371.91
2022-08-22T19:18:30.802Z,101379.63
2022-08-22T19:21:37.688Z,101381.97
2022-08-22T19:24:08.325Z,101388.63
2022-08-22T19:26:44.875Z,101391.28
2022-08-22T19:29:15.926Z,101386.63
2022-08-22T19:31:56.191Z,101391.25
2022-08-22T19:34:29.249Z,101390.56
2022-08-22T19:37:33.106Z,101388.25
2022-08-22T19:40:11.983Z,101378.72
2022-08-22T19:42:41.334Z,101387.00
2022-08-22T19:45:20.153Z,101376.72
2022-08-22T19:47:55.664Z,101386.59
2022-08-22T19:50:22.311Z,101387.94
2022-08-22T19:52:57.897Z,101386.66
2022-08-22T19:55:27.651Z,101385.34
2022-08-22T19:58:12.777Z,101384.97
2022-08-22T20:00:55.035Z,101384.38
2022-08-22T20:03:53.103Z,101384.69
2022-08-22T20:06:47.806Z,101376.28
2022-08-22T20:09:33.787Z,101373.63
2022-08-22T20:12:19.707Z,101378.91
2022-08-22T20:14:47.499Z,101378.75
2022-08-22T20:17:33.909Z,101379.94
2022-08-22T20:20:18.555Z,101371.72
2022-08-22T20:22:52.714Z,101386.72
2022-08-22T20:25:42.930Z,101384.41
2022-08-22T20:28:45.728Z,101385.38
2022-08-22T20:31:20.779Z,101380.97
2022-08-22T20:33:53.579Z,101385.44
2022-08-22T20:36:27.641Z,101370.59
2022-08-22T20:39:01.728Z,101381.81
2022-08-22T20:41:36.864Z,101378.03
2022-08-22T20:44:19.310Z,101384.78
2022-08-22T20:46:55.348Z,101372.59
2022-08-22T20:49:31.532Z,101381.78
2022-08-22T20:52:01.557Z,101379.00
2022-08-22T20:54:32.415Z,101371.09
2022-08-22T20:57:01.292Z,101365.81
2022-08-22T20:59:30.041Z,101369.47
2022-08-22T21:02:04.071Z,101365.66
2022-08-22T21:04:42.700Z,101375.88
2022-08-22T21:07:09.512Z,101372.09
2022-08-22T21:09:54.758Z,101371.28
2022-08-22T21:12:22.301Z,101368.84
2022-08-22T21:14:48.814Z,101373.94
2022-08-22T21:17:21.684Z,101371.31
2022-08-22T21:19:48.547Z,101362.41
2022-08-22T21:22:18.900Z,101372.97
2022-08-22T21:24:45.650Z,101366.69
2022-08-22T21:27:28.819Z,101376.91
2022-08-22T21:29:56.406Z,101380.34
2022-08-22T21:32:32.790Z,101370.94
2022-08-22T21:34:59.847Z,101369.28
2022-08-22T21:37:45.776Z,101366.00
2022-08-22T21:40:23.814Z,101377.34
2022-08-22T21:43:12.026Z,101368.13
2022-08-22T21:45:38.472Z,101361.84
2022-08-22T21:48:38.501Z,101372.19
2022-08-22T21:51:22.370Z,101361.66
2022-08-22T21:53:48.983Z,101357.69
2022-08-22T21:56:30.121Z,101371.94
2022-08-22T21:59:50.660Z,101365.94
2022-08-22T22:02:36.422Z,101367.91
2022-08-22T22:05:11.319Z,101371.41
2022-08-22T22:07:40.750Z,101373.03
2022-08-22T22:10:09.259Z,101368.09
2022-08-22T22:12:39.197Z,101368.34
2022-08-22T22:15:06.165Z,101365.06
2022-08-22T22:17:32.662Z,101368.13
2022-08-22T22:19:59.160Z,101363.38
2022-08-22T22:22:25.663Z,101369.75
2022-08-22T22:24:52.167Z,101365.44
2022-08-22T22:27:18.748Z,101367.91
2022-08-22T22:29:45.517Z,101371.69
2022-08-22T22:32:12.005Z,101368.38
2022-08-22T22:34:39.108Z,101360.31
2022-08-22T22:37:08.147Z,101362.09
2022-08-22T22:39:36.049Z,101362.91
2022-08-22T22:42:03.548Z,101363.06
2022-08-22T22:44:30.669Z,101362.53
2022-08-22T22:46:58.807Z,101358.50
2022-08-22T22:49:25.300Z,101363.72
2022-08-22T22:51:51.930Z,101366.69
2022-08-22T22:54:18.501Z,101364.00
2022-08-22T22:56:48.005Z,101356.13
2022-08-22T22:59:14.934Z,101361.63
2022-08-22T23:02:01.264Z,101357.78
2022-08-22T23:04:29.000Z,101366.72
2022-08-22T23:06:55.756Z,101359.81
2022-08-22T23:09:23.860Z,101368.97
2022-08-22T23:12:06.465Z,101360.03
2022-08-22T23:14:33.877Z,101367.47
2022-08-22T23:17:01.316Z,101368.41
2022-08-22T23:19:28.811Z,101374.00
2022-08-22T23:21:57.592Z,101368.75
2022-08-22T23:24:25.626Z,101366.56
2022-08-22T23:26:52.458Z,101359.97
2022-08-22T23:29:19.171Z,101368.28
2022-08-22T23:31:55.081Z,101376.31
2022-08-22T23:34:24.824Z,101371.38
2022-08-22T23:36:53.655Z,101365.59
2022-08-22T23:39:22.607Z,101362.41
2022-08-22T23:41:49.708Z,101358.56
2022-08-22T23:44:20.023Z,101356.44
2022-08-22T23:46:46.968Z,101350.13
2022-08-22T23:49:14.293Z,101351.06
2022-08-22T23:51:41.888Z,101348.41
2022-08-22T23:54:08.600Z,101339.81
2022-08-22T23:56:40.541Z,101348.31
2022-08-22T23:59:11.491Z,101360.88
